sensor_id;sensor_type;location;lat;lon;timestamp;temperature;humidity
15184;DHT22;7693;49.266;7.104;2023-09-18T05:19:52;18.90;99.90
15184;DHT22;7693;49.266;7.104;2023-09-18T05:22:18;18.90;99.90
15184;DHT22;7693;49.266;7.104;2023-09-18T05:24:44;18.90;99.90
15184;DHT22;7693;49.266;7.104;2023-09-18T05:27:10;18.90;99.90
15184;DHT22;7693;49.266;7.104;2023-09-18T05:29:37;18.90;99.90
15184;DHT22;7693;49.266;7.104;2023-09-18T05:32:03;18.90;99.90
15184;DHT22;7693;49.266;7.104;2023-09-18T05:34:29;18.90;99.90
15184;DHT22;7693;49.266;7.104;2023-09-18T05:36:55;18.90;99.90
15184;DHT22;7693;49.266;7.104;2023-09-18T05:39:20;18.90;99.90
15184;DHT22;7693;49.266;7.104;2023-09-18T05:41:46;18.90;99.90
15184;DHT22;7693;49.266;7.104;2023-09-18T05:44:11;18.90;99.90
15184;DHT22;7693;49.266;7.104;2023-09-18T05:46:37;18.90;99.90
15184;DHT22;7693;49.266;7.104;2023-09-18T05:49:03;18.90;99.90
15184;DHT22;7693;49.266;7.104;2023-09-18T05:51:30;18.90;99.90
15184;DHT22;7693;49.266;7.104;2023-09-18T05:53:56;18.90;99.90
15184;DHT22;7693;49.266;7.104;2023-09-18T05:56:22;18.90;99.90
15184;DHT22;7693;49.266;7.104;2023-09-18T05:58:49;18.90;99.90
15184;DHT22;7693;49.266;7.104;2023-09-18T06:01:14;19.00;99.90
15184;DHT22;7693;49.266;7.104;2023-09-18T06:03:40;19.00;99.90
15184;DHT22;7693;49.266;7.104;2023-09-18T06:06:06;19.00;99.90
15184;DHT22;7693;49.266;7.104;2023-09-18T06:08:31;19.00;99.90
15184;DHT22;7693;49.266;7.104;2023-09-18T06:10:58;19.00;99.90
15184;DHT22;7693;49.266;7.104;2023-09-18T06:13:24;19.00;99.90
15184;DHT22;7693;49.266;7.104;2023-09-18T06:15:51;19.00;99.90
15184;DHT22;7693;49.266;7.104;2023-09-18T06:18:20;19.00;99.90
15184;DHT22;7693;49.266;7.104;2023-09-18T06:20:49;19.00;99.90
15184;DHT22;7693;49.266;7.104;2023-09-18T06:23:14;19.00;99.90
15184;DHT22;7693;49.266;7.104;2023-09-18T06:25:40;19.00;99.90
15184;DHT22;7693;49.266;7.104;2023-09-18T06:28:06;19.00;99.90
15184;DHT22;7693;49.266;7.104;2023-09-18T06:30:32;19.10;99.90
15184;DHT22;7693;49.266;7.104;2023-09-18T06:32:59;19.00;99.90
15184;DHT22;7693;49.266;7.104;2023-09-18T06:35:25;19.10;99.90
15184;DHT22;7693;49.266;7.104;2023-09-18T06:37:50;19.10;99.90
15184;DHT22;7693;49.266;7.104;2023-09-18T06:40:17;19.00;99.90
15184;DHT22;7693;49.266;7.104;2023-09-18T06:42:42;19.10;99.90
15184;DHT22;7693;49.266;7.104;2023-09-18T06:45:08;19.00;99.90
15184;DHT22;7693;49.266;7.104;2023-09-18T06:47:34;19.00;99.90
15184;DHT22;7693;49.266;7.104;2023-09-18T06:50:00;19.00;99.90
15184;DHT22;7693;49.266;7.104;2023-09-18T06:52:26;19.00;99.90
15184;DHT22;7693;49.266;7.104;2023-09-18T06:54:53;19.10;99.90
15184;DHT22;7693;49.266;7.104;2023-09-18T06:57:19;19.10;99.90
15184;DHT22;7693;49.266;7.104;2023-09-18T06:59:46;19.10;99.90
15184;DHT22;7693;49.266;7.104;2023-09-18T07:02:12;19.10;99.90
15184;DHT22;7693;49.266;7.104;2023-09-18T07:04:40;19.10;99.90
15184;DHT22;7693;49.266;7.104;2023-09-18T07:07:11;19.10;99.90
15184;DHT22;7693;49.266;7.104;2023-09-18T07:09:38;19.10;99.90
15184;DHT22;7693;49.266;7.104;2023-09-18T07:12:04;19.10;99.90
15184;DHT22;7693;49.266;7.104;2023-09-18T07:14:29;19.10;99.90
15184;DHT22;7693;49.266;7.104;2023-09-18T07:16:56;19.10;99.90
15184;DHT22;7693;49.266;7.104;2023-09-18T07:19:22;19.10;99.90
15184;DHT22;7693;49.266;7.104;2023-09-18T07:21:47;19.10;99.90
15184;DHT22;7693;49.266;7.104;2023-09-18T07:24:13;19.10;99.90
15184;DHT22;7693;49.266;7.104;2023-09-18T07:26:46;19.10;99.90
15184;DHT22;7693;49.266;7.104;2023-09-18T07:29:13;19.20;99.90
15184;DHT22;7693;49.266;7.104;2023-09-18T07:31:39;19.20;99.90
15184;DHT22;7693;49.266;7.104;2023-09-18T07:34:06;19.20;99.90
15184;DHT22;7693;49.266;7.104;2023-09-18T07:36:31;19.20;99.90
15184;DHT22;7693;49.266;7.104;2023-09-18T07:38:57;19.20;99.90
15184;DHT22;7693;49.266;7.104;2023-09-18T07:41:23;19.20;99.90
15184;DHT22;7693;49.266;7.104;2023-09-18T07:43:48;19.20;99.90
15184;DHT22;7693;49.266;7.104;2023-09-18T07:46:14;19.20;99.90
15184;DHT22;7693;49.266;7.104;2023-09-18T07:48:39;19.20;99.90
15184;DHT22;7693;49.266;7.104;2023-09-18T07:51:05;19.20;99.90
15184;DHT22;7693;49.266;7.104;2023-09-18T07:53:31;19.20;99.90
15184;DHT22;7693;49.266;7.104;2023-09-18T07:55:58;19.20;99.90
15184;DHT22;7693;49.266;7.104;2023-09-18T07:58:25;19.20;99.90
15184;DHT22;7693;49.266;7.104;2023-09-18T08:00:54;19.20;99.90
15184;DHT22;7693;49.266;7.104;2023-09-18T08:03:20;19.20;99.90
15184;DHT22;7693;49.266;7.104;2023-09-18T08:05:50;19.20;99.90
15184;DHT22;7693;49.266;7.104;2023-09-18T08:08:18;19.20;99.90
15184;DHT22;7693;49.266;7.104;2023-09-18T08:10:48;19.30;99.90
15184;DHT22;7693;49.266;7.104;2023-09-18T08:13:13;19.20;99.90
15184;DHT22;7693;49.266;7.104;2023-09-18T08:15:39;19.20;99.90
15184;DHT22;7693;49.266;7.104;2023-09-18T08:18:05;19.20;99.90
15184;DHT22;7693;49.266;7.104;2023-09-18T08:20:31;19.30;99.90
15184;DHT22;7693;49.266;7.104;2023-09-18T08:22:58;19.30;99.90
15184;DHT22;7693;49.266;7.104;2023-09-18T08:25:26;19.30;99.90
15184;DHT22;7693;49.266;7.104;2023-09-18T08:27:52;19.40;99.90
15184;DHT22;7693;49.266;7.104;2023-09-18T08:30:18;19.40;99.90
15184;DHT22;7693;49.266;7.104;2023-09-18T08:32:46;19.40;99.90
15184;DHT22;7693;49.266;7.104;2023-09-18T08:35:13;19.50;99.90
15184;DHT22;7693;49.266;7.104;2023-09-18T08:37:40;19.50;99.90
15184;DHT22;7693;49.266;7.104;2023-09-18T08:40:09;19.60;99.90
15184;DHT22;7693;49.266;7.104;2023-09-18T08:42:38;19.60;99.90
15184;DHT22;7693;49.266;7.104;2023-09-18T08:45:08;19.70;99.90
15184;DHT22;7693;49.266;7.104;2023-09-18T08:47:40;19.70;99.90
15184;DHT22;7693;49.266;7.104;2023-09-18T08:50:08;19.70;99.90
15184;DHT22;7693;49.266;7.104;2023-09-18T08:52:35;19.70;99.90
15184;DHT22;7693;49.266;7.104;2023-09-18T08:55:01;19.80;99.90
15184;DHT22;7693;49.266;7.104;2023-09-18T08:57:28;19.90;99.90
15184;DHT22;7693;49.266;7.104;2023-09-18T08:59:56;20.00;99.90
15184;DHT22;7693;49.266;7.104;2023-09-18T09:02:23;20.00;99.90
15184;DHT22;7693;49.266;7.104;2023-09-18T09:04:49;20.10;99.90
15184;DHT22;7693;49.266;7.104;2023-09-18T09:07:15;20.20;99.90
15184;DHT22;7693;49.266;7.104;2023-09-18T09:09:41;20.20;99.90
15184;DHT22;7693;49.266;7.104;2023-09-18T09:12:07;20.20;99.90
15184;DHT22;7693;49.266;7.104;2023-09-18T09:14:33;20.30;99.90
15184;DHT22;7693;49.266;7.104;2023-09-18T09:16:59;20.40;99.90
15184;DHT22;7693;49.266;7.104;2023-09-18T09:19:42;20.50;99.90
15184;DHT22;7693;49.266;7.104;2023-09-18T09:22:08;20.50;99.90
15184;DHT22;7693;49.266;7.104;2023-09-18T09:27:04;20.60;99.90
15184;DHT22;7693;49.266;7.104;2023-09-18T09:29:29;20.60;99.90
15184;DHT22;7693;49.266;7.104;2023-09-18T09:31:55;20.60;99.90
15184;DHT22;7693;49.266;7.104;2023-09-18T09:34:27;20.60;99.90
15184;DHT22;7693;49.266;7.104;2023-09-18T09:36:56;20.60;99.90
15184;DHT22;7693;49.266;7.104;2023-09-18T09:39:22;20.60;99.90
15184;DHT22;7693;49.266;7.104;2023-09-18T09:41:54;20.60;99.90
15184;DHT22;7693;49.266;7.104;2023-09-18T09:44:20;20.70;99.90
15184;DHT22;7693;49.266;7.104;2023-09-18T09:46:50;20.70;99.90
15184;DHT22;7693;49.266;7.104;2023-09-18T09:49:17;20.70;99.90
15184;DHT22;7693;49.266;7.104;2023-09-18T09:51:45;20.70;99.90
15184;DHT22;7693;49.266;7.104;2023-09-18T09:54:10;20.70;99.90
15184;DHT22;7693;49.266;7.104;2023-09-18T09:56:46;20.70;99.90
15184;DHT22;7693;49.266;7.104;2023-09-18T09:59:13;20.70;99.90
15184;DHT22;7693;49.266;7.104;2023-09-18T10:01:39;20.70;99.90
15184;DHT22;7693;49.266;7.104;2023-09-18T10:04:14;20.70;99.90
15184;DHT22;7693;49.266;7.104;2023-09-18T10:06:44;20.70;99.90
15184;DHT22;7693;49.266;7.104;2023-09-18T10:09:13;20.70;99.90
15184;DHT22;7693;49.266;7.104;2023-09-18T19:19:17;16.90;99.90
15184;DHT22;7693;49.266;7.104;2023-09-18T19:21:43;16.90;99.90
15184;DHT22;7693;49.266;7.104;2023-09-18T19:24:09;17.00;99.90
15184;DHT22;7693;49.266;7.104;2023-09-18T19:26:36;17.00;99.90
15184;DHT22;7693;49.266;7.104;2023-09-18T19:29:02;17.00;99.90
15184;DHT22;7693;49.266;7.104;2023-09-18T19:31:27;17.00;99.90
15184;DHT22;7693;49.266;7.104;2023-09-18T19:33:53;17.00;99.90
15184;DHT22;7693;49.266;7.104;2023-09-18T19:36:18;17.00;99.90
15184;DHT22;7693;49.266;7.104;2023-09-18T19:38:44;17.00;99.90
15184;DHT22;7693;49.266;7.104;2023-09-18T19:41:10;17.00;99.90
15184;DHT22;7693;49.266;7.104;2023-09-18T19:43:36;17.00;99.90
15184;DHT22;7693;49.266;7.104;2023-09-18T19:46:02;17.00;99.90
15184;DHT22;7693;49.266;7.104;2023-09-18T19:48:28;17.00;99.90
15184;DHT22;7693;49.266;7.104;2023-09-18T19:50:53;17.00;99.90
15184;DHT22;7693;49.266;7.104;2023-09-18T19:53:24;17.00;99.90
15184;DHT22;7693;49.266;7.104;2023-09-18T19:55:52;17.00;99.90
15184;DHT22;7693;49.266;7.104;2023-09-18T19:58:18;17.10;99.90
15184;DHT22;7693;49.266;7.104;2023-09-18T20:00:43;17.00;99.90
15184;DHT22;7693;49.266;7.104;2023-09-18T20:03:09;17.00;99.90
15184;DHT22;7693;49.266;7.104;2023-09-18T20:05:34;17.00;99.90
15184;DHT22;7693;49.266;7.104;2023-09-18T20:08:00;17.00;99.90
15184;DHT22;7693;49.266;7.104;2023-09-18T20:10:25;17.00;99.90
15184;DHT22;7693;49.266;7.104;2023-09-18T20:12:52;17.00;99.90
15184;DHT22;7693;49.266;7.104;2023-09-18T20:15:19;17.00;99.90
15184;DHT22;7693;49.266;7.104;2023-09-18T20:17:45;17.00;99.90
15184;DHT22;7693;49.266;7.104;2023-09-18T20:20:16;17.00;99.90
15184;DHT22;7693;49.266;7.104;2023-09-18T20:22:41;17.00;99.90
15184;DHT22;7693;49.266;7.104;2023-09-18T20:25:08;17.00;99.90
15184;DHT22;7693;49.266;7.104;2023-09-18T20:27:38;17.00;99.90
15184;DHT22;7693;49.266;7.104;2023-09-18T20:30:11;17.00;99.90
15184;DHT22;7693;49.266;7.104;2023-09-18T20:32:39;17.00;99.90
15184;DHT22;7693;49.266;7.104;2023-09-18T20:35:05;17.00;99.90
15184;DHT22;7693;49.266;7.104;2023-09-18T20:37:31;17.00;99.90
15184;DHT22;7693;49.266;7.104;2023-09-18T20:39:57;17.00;99.90
15184;DHT22;7693;49.266;7.104;2023-09-18T20:42:24;17.00;99.90
15184;DHT22;7693;49.266;7.104;2023-09-18T20:44:49;16.90;99.90
15184;DHT22;7693;49.266;7.104;2023-09-18T20:47:15;16.90;99.90
15184;DHT22;7693;49.266;7.104;2023-09-18T20:49:42;16.90;99.90
15184;DHT22;7693;49.266;7.104;2023-09-18T20:52:13;16.90;99.90
15184;DHT22;7693;49.266;7.104;2023-09-18T20:54:39;16.90;99.90
15184;DHT22;7693;49.266;7.104;2023-09-18T20:57:05;16.90;99.90
15184;DHT22;7693;49.266;7.104;2023-09-18T20:59:31;16.90;99.90
15184;DHT22;7693;49.266;7.104;2023-09-18T21:01:57;16.90;99.90
15184;DHT22;7693;49.266;7.104;2023-09-18T21:04:22;16.90;99.90
15184;DHT22;7693;49.266;7.104;2023-09-18T21:06:48;16.90;99.90
15184;DHT22;7693;49.266;7.104;2023-09-18T21:09:14;16.80;99.90
15184;DHT22;7693;49.266;7.104;2023-09-18T21:11:39;16.90;99.90
15184;DHT22;7693;49.266;7.104;2023-09-18T21:14:09;16.90;99.90
15184;DHT22;7693;49.266;7.104;2023-09-18T21:16:35;16.90;99.90
15184;DHT22;7693;49.266;7.104;2023-09-18T21:19:01;16.90;99.90
15184;DHT22;7693;49.266;7.104;2023-09-18T21:21:28;16.90;99.90
15184;DHT22;7693;49.266;7.104;2023-09-18T21:23:54;16.90;99.90
15184;DHT22;7693;49.266;7.104;2023-09-18T21:26:19;16.90;99.90
15184;DHT22;7693;49.266;7.104;2023-09-18T21:28:45;16.90;99.90
15184;DHT22;7693;49.266;7.104;2023-09-18T21:31:12;16.90;99.90
15184;DHT22;7693;49.266;7.104;2023-09-18T21:33:41;16.90;99.90
15184;DHT22;7693;49.266;7.104;2023-09-18T21:36:20;16.90;99.90
15184;DHT22;7693;49.266;7.104;2023-09-18T21:38:46;17.00;99.90
15184;DHT22;7693;49.266;7.104;2023-09-18T21:41:14;17.00;99.90
15184;DHT22;7693;49.266;7.104;2023-09-18T21:43:45;17.00;99.90
15184;DHT22;7693;49.266;7.104;2023-09-18T21:46:14;17.00;99.90
15184;DHT22;7693;49.266;7.104;2023-09-18T21:48:39;17.00;99.90
15184;DHT22;7693;49.266;7.104;2023-09-18T21:51:05;17.00;99.90
15184;DHT22;7693;49.266;7.104;2023-09-18T21:53:32;17.00;99.90
15184;DHT22;7693;49.266;7.104;2023-09-18T21:55:58;17.00;99.90
15184;DHT22;7693;49.266;7.104;2023-09-18T21:58:24;16.90;99.90
15184;DHT22;7693;49.266;7.104;2023-09-18T22:00:55;16.90;99.90
15184;DHT22;7693;49.266;7.104;2023-09-18T22:03:20;16.90;99.90
15184;DHT22;7693;49.266;7.104;2023-09-18T22:05:46;16.90;99.90
15184;DHT22;7693;49.266;7.104;2023-09-18T22:08:12;16.90;99.90
15184;DHT22;7693;49.266;7.104;2023-09-18T22:10:37;16.90;99.90
15184;DHT22;7693;49.266;7.104;2023-09-18T22:13:03;16.80;99.90
15184;DHT22;7693;49.266;7.104;2023-09-18T22:15:29;16.90;99.90
15184;DHT22;7693;49.266;7.104;2023-09-18T22:17:54;16.90;99.90
15184;DHT22;7693;49.266;7.104;2023-09-18T22:20:20;16.90;99.90
15184;DHT22;7693;49.266;7.104;2023-09-18T22:22:46;16.90;99.90
15184;DHT22;7693;49.266;7.104;2023-09-18T22:25:13;16.90;99.90
15184;DHT22;7693;49.266;7.104;2023-09-18T22:27:39;16.90;99.90
15184;DHT22;7693;49.266;7.104;2023-09-18T22:30:06;16.90;99.90
15184;DHT22;7693;49.266;7.104;2023-09-18T22:32:32;16.90;99.90
15184;DHT22;7693;49.266;7.104;2023-09-18T22:35:05;16.90;99.90
15184;DHT22;7693;49.266;7.104;2023-09-18T22:37:30;16.80;99.90
